createdAt,value
2018-09-21T00:01:18.231Z,63.80
2018-09-21T00:04:00.812Z,63.40
2018-09-21T00:06:28.814Z,63.50
2018-09-21T00:08:56.507Z,63.60
2018-09-21T00:11:24.115Z,63.70
2018-09-21T00:13:51.662Z,64.00
2018-09-21T00:16:20.256Z,64.00
2018-09-21T00:18:47.876Z,64.10
2018-09-21T00:21:15.948Z,64.20
2018-09-21T00:23:43.656Z,64.20
2018-09-21T00:26:11.311Z,64.00
2018-09-21T00:28:38.955Z,64.10
2018-09-21T00:31:07.105Z,64.30
2018-09-21T00:33:34.781Z,64.30
2018-09-21T00:36:02.522Z,64.60
2018-09-21T00:38:30.175Z,64.40
2018-09-21T00:40:57.751Z,64.20
2018-09-21T00:43:25.590Z,64.30
2018-09-21T00:45:53.192Z,64.20
2018-09-21T00:48:20.958Z,64.40
2018-09-21T00:50:48.515Z,64.70
2018-09-21T00:53:16.333Z,64.80
2018-09-21T00:55:43.956Z,65.00
2018-09-21T00:58:11.543Z,65.00
2018-09-21T01:00:39.189Z,65.30
2018-09-21T01:03:06.901Z,65.10
2018-09-21T01:05:34.557Z,65.00
2018-09-21T01:08:02.048Z,65.30
2018-09-21T01:10:30.808Z,65.40
2018-09-21T01:12:58.453Z,65.10
2018-09-21T01:15:26.023Z,65.10
2018-09-21T01:17:53.609Z,64.90
2018-09-21T01:20:21.699Z,65.30
2018-09-21T01:22:49.310Z,65.10
2018-09-21T01:25:16.955Z,65.20
2018-09-21T01:27:44.575Z,65.10
2018-09-21T01:30:12.234Z,66.00
2018-09-21T01:32:39.969Z,65.50
2018-09-21T01:35:07.441Z,65.60
2018-09-21T01:37:35.012Z,65.50
2018-09-21T01:40:02.783Z,65.60
2018-09-21T01:42:30.333Z,65.70
2018-09-21T01:44:58.498Z,65.60
2018-09-21T01:47:26.127Z,65.80
2018-09-21T01:49:54.099Z,66.10
2018-09-21T01:52:22.168Z,66.30
2018-09-21T01:54:49.969Z,66.40
2018-09-21T01:57:17.765Z,66.50
2018-09-21T01:59:45.692Z,66.70
2018-09-21T02:02:13.467Z,66.60
2018-09-21T02:04:41.288Z,66.50
2018-09-21T02:07:11.154Z,66.70
2018-09-21T02:09:39.163Z,66.70
2018-09-21T02:12:06.947Z,66.80
2018-09-21T02:14:35.302Z,66.60
2018-09-21T02:17:03.509Z,66.80
2018-09-21T02:19:31.793Z,66.70
2018-09-21T02:21:59.508Z,66.90
2018-09-21T02:24:27.233Z,66.90
2018-09-21T02:26:55.129Z,66.70
2018-09-21T02:29:22.927Z,66.80
2018-09-21T02:31:50.951Z,66.50
2018-09-21T02:34:19.142Z,66.00
2018-09-21T02:36:46.972Z,66.00
2018-09-21T02:39:14.807Z,66.30
2018-09-21T02:41:42.494Z,66.50
2018-09-21T02:44:10.494Z,66.60
2018-09-21T02:46:38.469Z,66.80
2018-09-21T02:49:06.201Z,66.80
2018-09-21T02:51:34.049Z,66.80
2018-09-21T02:54:02.249Z,66.80
2018-09-21T02:56:30.107Z,66.50
2018-09-21T02:58:57.772Z,67.40
2018-09-21T03:01:25.611Z,66.50
2018-09-21T03:03:53.380Z,66.50
2018-09-21T03:06:21.116Z,65.90
2018-09-21T03:08:48.785Z,65.80
2018-09-21T03:11:16.744Z,66.20
2018-09-21T03:13:44.315Z,66.60
2018-09-21T03:16:18.584Z,66.80
2018-09-21T03:18:46.541Z,66.90
2018-09-21T03:21:14.206Z,67.10
2018-09-21T03:23:41.768Z,67.20
2018-09-21T03:26:09.283Z,67.30
2018-09-21T03:28:36.851Z,67.20
2018-09-21T03:31:04.396Z,67.10
2018-09-21T03:33:32.165Z,67.30
2018-09-21T03:35:59.702Z,67.30
2018-09-21T03:38:27.179Z,67.30
2018-09-21T03:40:54.912Z,67.30
2018-09-21T03:43:22.496Z,67.30
2018-09-21T03:45:50.057Z,67.20
2018-09-21T03:48:17.654Z,67.30
2018-09-21T03:50:45.096Z,67.40
2018-09-21T03:53:12.571Z,67.20
2018-09-21T03:55:40.375Z,67.40
2018-09-21T03:58:07.829Z,67.50
2018-09-21T04:00:35.388Z,67.80
2018-09-21T04:03:02.920Z,67.90
2018-09-21T04:05:30.436Z,67.90
2018-09-21T04:07:57.919Z,68.10
2018-09-21T04:10:25.393Z,68.00
2018-09-21T04:12:52.841Z,67.70
2018-09-21T04:15:20.570Z,67.30
2018-09-21T04:17:48.111Z,67.60
2018-09-21T04:20:15.629Z,67.50
2018-09-21T04:22:47.887Z,67.40
2018-09-21T04:25:15.498Z,67.50
2018-09-21T04:27:43.003Z,67.50
2018-09-21T04:30:10.444Z,67.60
2018-09-21T04:32:37.923Z,67.60
2018-09-21T04:35:05.448Z,67.40
2018-09-21T04:37:32.923Z,67.60
2018-09-21T04:40:00.462Z,67.70
2018-09-21T04:42:27.938Z,67.70
2018-09-21T04:44:55.390Z,67.50
2018-09-21T04:47:22.957Z,67.70
2018-09-21T04:49:50.423Z,67.20
2018-09-21T04:52:17.876Z,67.40
2018-09-21T04:54:45.393Z,68.20
2018-09-21T04:57:13.479Z,67.30
2018-09-21T04:59:41.008Z,67.30
2018-09-21T05:02:08.562Z,67.40
2018-09-21T05:04:37.767Z,67.60
2018-09-21T05:07:05.473Z,67.40
2018-09-21T05:09:33.039Z,67.60
2018-09-21T05:12:00.553Z,67.70
2018-09-21T05:14:28.194Z,67.70
2018-09-21T05:16:55.759Z,67.70
2018-09-21T05:19:23.275Z,67.70
2018-09-21T05:21:50.819Z,67.60
2018-09-21T05:24:18.325Z,67.00
2018-09-21T05:26:45.948Z,67.10
2018-09-21T05:29:13.495Z,67.20
2018-09-21T05:31:41.420Z,67.30
2018-09-21T05:34:08.891Z,67.50
2018-09-21T05:36:36.399Z,67.60
2018-09-21T05:39:07.127Z,67.80
2018-09-21T05:41:35.208Z,68.00
2018-09-21T05:44:02.731Z,68.10
2018-09-21T05:46:30.390Z,68.30
2018-09-21T05:48:58.607Z,68.20
2018-09-21T05:51:26.107Z,67.90
2018-09-21T05:53:53.627Z,68.00
2018-09-21T05:56:21.783Z,67.40
2018-09-21T05:58:49.311Z,67.40
2018-09-21T06:01:16.823Z,67.60
2018-09-21T06:03:44.540Z,67.70
2018-09-21T06:06:12.228Z,67.80
2018-09-21T06:08:39.759Z,67.90
2018-09-21T06:11:07.315Z,67.80
2018-09-21T06:13:35.560Z,67.90
2018-09-21T06:16:02.992Z,67.60
2018-09-21T06:18:30.547Z,67.50
2018-09-21T06:20:58.147Z,67.60
2018-09-21T06:23:26.039Z,67.10
2018-09-21T06:25:54.080Z,67.00
2018-09-21T06:28:21.603Z,67.30
2018-09-21T06:30:51.005Z,67.10
2018-09-21T06:33:21.892Z,67.30
2018-09-21T06:35:51.591Z,68.00
2018-09-21T06:38:22.149Z,67.60
2018-09-21T06:40:56.248Z,68.30
2018-09-21T06:43:27.688Z,68.90
2018-09-21T06:46:01.247Z,68.50
2018-09-21T06:48:30.391Z,67.80
2018-09-21T06:51:01.636Z,67.70
2018-09-21T06:53:33.849Z,68.00
2018-09-21T06:56:03.339Z,67.90
2018-09-21T06:58:32.707Z,68.60
2018-09-21T07:01:02.910Z,68.30
2018-09-21T07:03:38.962Z,67.50
2018-09-21T07:06:07.001Z,67.90
2018-09-21T07:08:35.913Z,68.60
2018-09-21T07:11:08.446Z,67.90
2018-09-21T07:13:36.374Z,67.80
2018-09-21T07:16:06.441Z,68.00
2018-09-21T07:18:35.035Z,67.20
2018-09-21T07:21:08.464Z,67.50
2018-09-21T07:23:41.149Z,67.80
2018-09-21T07:26:09.141Z,67.70
2018-09-21T07:28:41.612Z,67.60
2018-09-21T07:31:13.022Z,66.50
2018-09-21T07:33:43.965Z,67.30
2018-09-21T07:36:13.539Z,67.10
2018-09-21T07:38:44.023Z,67.30
2018-09-21T07:41:13.149Z,67.40
2018-09-21T07:43:41.784Z,67.40
2018-09-21T07:46:11.134Z,67.10
2018-09-21T07:48:44.474Z,67.20
2018-09-21T07:51:16.062Z,67.10
2018-09-21T07:53:45.659Z,66.70
2018-09-21T07:56:14.265Z,66.70
2018-09-21T07:58:45.300Z,66.50
2018-09-21T08:01:14.845Z,66.60
2018-09-21T08:03:44.484Z,65.90
2018-09-21T08:06:13.771Z,66.30
2018-09-21T08:08:42.302Z,66.40
2018-09-21T08:11:11.828Z,66.00
2018-09-21T08:13:41.452Z,65.60
2018-09-21T08:16:10.625Z,65.10
2018-09-21T08:18:40.713Z,65.60
2018-09-21T08:21:08.900Z,64.60
2018-09-21T08:23:38.367Z,65.10
2018-09-21T08:26:06.794Z,65.20
2018-09-21T08:28:37.361Z,64.80
2018-09-21T08:31:05.864Z,65.10
2018-09-21T08:33:40.063Z,64.50
2018-09-21T08:36:15.057Z,64.00
2018-09-21T08:38:44.136Z,63.80
2018-09-21T08:41:13.225Z,63.10
2018-09-21T08:43:43.740Z,63.30
2018-09-21T08:46:16.934Z,63.50
2018-09-21T08:48:47.668Z,63.70
2018-09-21T08:51:24.553Z,63.30
2018-09-21T08:53:58.332Z,63.50
2018-09-21T08:56:33.754Z,63.20
2018-09-21T08:59:10.398Z,62.50
2018-09-21T09:01:39.818Z,62.40
2018-09-21T09:04:09.541Z,61.80
2018-09-21T09:06:38.205Z,61.50
2018-09-21T09:09:09.700Z,61.50
2018-09-21T09:11:38.642Z,61.40
2018-09-21T09:14:06.960Z,61.30
2018-09-21T09:16:35.336Z,61.40
2018-09-21T09:19:05.271Z,61.00
2018-09-21T09:21:33.452Z,61.00
2018-09-21T09:24:02.061Z,60.90
2018-09-21T09:26:32.630Z,60.60
2018-09-21T09:29:04.420Z,60.30
2018-09-21T09:31:40.343Z,60.00
2018-09-21T09:34:11.675Z,59.70
2018-09-21T09:36:45.701Z,59.90
2018-09-21T09:39:14.559Z,59.90
2018-09-21T09:41:44.154Z,59.60
2018-09-21T09:44:14.076Z,59.30
2018-09-21T09:46:43.127Z,59.60
2018-09-21T09:49:23.167Z,59.00
2018-09-21T09:52:19.675Z,58.90
2018-09-21T09:54:49.336Z,58.00
2018-09-21T09:57:23.276Z,57.40
2018-09-21T10:00:00.916Z,56.40
2018-09-21T10:02:34.918Z,56.10
2018-09-21T10:05:14.971Z,56.30
2018-09-21T10:07:47.947Z,55.10
2018-09-21T10:10:25.083Z,54.10
2018-09-21T10:12:55.914Z,53.30
2018-09-21T10:15:26.242Z,53.30
2018-09-21T10:18:19.355Z,52.20
2018-09-21T10:20:52.251Z,52.30
2018-09-21T10:23:27.016Z,52.30
2018-09-21T10:26:04.216Z,51.70
2018-09-21T10:28:34.359Z,52.40
2018-09-21T10:31:05.280Z,52.70
2018-09-21T10:33:40.879Z,52.60
2018-09-21T10:36:14.501Z,52.80
2018-09-21T10:38:49.126Z,52.30
2018-09-21T10:41:20.045Z,52.30
2018-09-21T10:44:02.239Z,52.70
2018-09-21T10:46:39.077Z,53.10
2018-09-21T10:51:54.579Z,53.90
2018-09-21T10:54:24.097Z,53.90
2018-09-21T11:00:34.825Z,53.50
2018-09-21T11:03:13.844Z,52.80
2018-09-21T11:05:42.985Z,53.30
2018-09-21T11:08:19.434Z,53.70
2018-09-21T11:10:57.892Z,53.90
2018-09-21T11:13:28.554Z,54.20
2018-09-21T11:15:59.424Z,54.30
2018-09-21T11:18:34.257Z,54.30
2018-09-21T11:21:04.180Z,53.80
2018-09-21T11:23:34.208Z,52.70
2018-09-21T11:26:04.716Z,52.30
2018-09-21T11:28:36.294Z,51.20
2018-09-21T11:31:14.607Z,49.10
2018-09-21T11:33:43.480Z,48.30
2018-09-21T11:36:11.720Z,48.30
2018-09-21T11:38:42.190Z,49.80
2018-09-21T11:41:22.851Z,49.40
2018-09-21T11:43:58.727Z,48.30
2018-09-21T11:49:11.819Z,47.60
2018-09-21T11:54:34.212Z,47.50
2018-09-21T11:57:14.098Z,47.60
2018-09-21T12:07:57.164Z,48.60
2018-09-21T12:10:28.752Z,49.00
2018-09-21T12:15:44.177Z,49.40
2018-09-21T12:18:15.935Z,49.80
2018-09-21T12:20:45.986Z,50.10
2018-09-21T12:23:16.851Z,50.00
2018-09-21T12:29:41.440Z,51.80
2018-09-21T12:32:15.023Z,52.40
2018-09-21T12:34:44.515Z,53.90
2018-09-21T12:37:21.132Z,54.90
2018-09-21T12:39:50.869Z,54.90
2018-09-21T12:42:21.239Z,55.70
2018-09-21T12:44:49.317Z,56.20
2018-09-21T12:47:19.676Z,55.40
2018-09-21T12:49:50.633Z,55.60
2018-09-21T12:52:19.366Z,56.50
2018-09-21T12:54:57.183Z,57.30
2018-09-21T12:57:27.135Z,58.10
2018-09-21T13:00:02.183Z,59.00
2018-09-21T13:02:36.061Z,59.60
2018-09-21T13:05:04.468Z,59.60
2018-09-21T13:07:32.799Z,59.90
2018-09-21T13:10:08.416Z,59.40
2018-09-21T13:12:43.650Z,59.60
2018-09-21T13:20:43.246Z,67.00
2018-09-21T13:23:13.897Z,68.70
2018-09-21T13:28:32.848Z,70.80
2018-09-21T13:31:04.270Z,71.80
2018-09-21T13:39:44.361Z,77.00
2018-09-21T13:42:20.725Z,79.10
2018-09-21T13:44:53.724Z,79.30
2018-09-21T13:47:27.525Z,79.90
2018-09-21T13:49:56.558Z,79.50
2018-09-21T13:52:29.023Z,78.70
2018-09-21T13:54:58.138Z,81.40
2018-09-21T13:57:26.836Z,81.80
2018-09-21T13:59:56.182Z,80.60
2018-09-21T14:02:29.249Z,80.20
2018-09-21T14:04:59.549Z,79.70
2018-09-21T14:07:30.646Z,80.00
2018-09-21T14:10:33.814Z,80.30
2018-09-21T14:13:03.538Z,79.60
2018-09-21T14:19:43.239Z,81.00
2018-09-21T14:25:01.395Z,84.40
2018-09-21T14:27:40.693Z,85.70
2018-09-21T14:30:11.664Z,86.30
2018-09-21T14:32:42.525Z,86.00
2018-09-21T14:35:18.178Z,85.00
2018-09-21T14:37:48.524Z,84.80
2018-09-21T14:40:21.395Z,84.20
2018-09-21T14:42:50.178Z,83.90
2018-09-21T14:45:18.657Z,82.50
2018-09-21T14:47:48.457Z,81.90
2018-09-21T14:50:22.869Z,82.90
2018-09-21T14:52:58.252Z,84.10
2018-09-21T14:55:26.936Z,85.20
2018-09-21T14:57:55.936Z,84.70
2018-09-21T15:00:27.284Z,83.50
2018-09-21T15:02:57.694Z,82.90
2018-09-21T15:05:29.163Z,84.70
2018-09-21T15:07:57.319Z,84.40
2018-09-21T15:10:28.004Z,82.90
2018-09-21T15:12:58.538Z,83.70
2018-09-21T15:15:26.825Z,82.50
2018-09-21T15:17:56.551Z,83.40
2018-09-21T15:20:25.876Z,83.30
2018-09-21T15:22:55.804Z,83.10
2018-09-21T15:25:25.223Z,83.00
2018-09-21T15:27:59.462Z,82.90
2018-09-21T15:30:28.241Z,81.30
2018-09-21T15:33:02.225Z,79.90
2018-09-21T15:35:30.637Z,80.20
2018-09-21T15:38:04.334Z,80.20
2018-09-21T15:40:52.800Z,79.10
2018-09-21T15:46:18.965Z,79.90
2018-09-21T15:48:49.549Z,80.00
2018-09-21T15:51:21.124Z,79.00
2018-09-21T15:53:50.692Z,79.20
2018-09-21T15:56:19.485Z,77.50
2018-09-21T15:58:47.609Z,77.40
2018-09-21T16:01:22.499Z,78.50
2018-09-21T16:03:52.570Z,77.50
2018-09-21T16:06:25.258Z,77.20
2018-09-21T16:08:54.034Z,77.40
2018-09-21T16:11:25.202Z,77.00
2018-09-21T16:13:55.412Z,77.90
2018-09-21T16:16:24.261Z,77.60
2018-09-21T16:18:53.277Z,76.20
2018-09-21T16:21:22.631Z,73.30
2018-09-21T16:23:50.336Z,72.00
2018-09-21T16:26:18.961Z,69.20
2018-09-21T16:28:46.811Z,67.00
2018-09-21T16:31:14.751Z,67.70
2018-09-21T16:33:42.564Z,66.40
2018-09-21T16:36:11.510Z,66.90
2018-09-21T16:38:39.807Z,66.90
2018-09-21T16:41:08.143Z,65.40
2018-09-21T16:43:36.667Z,64.90
2018-09-21T16:46:05.551Z,64.90
2018-09-21T16:48:35.016Z,64.70
2018-09-21T16:51:07.054Z,64.30
2018-09-21T16:53:39.342Z,65.10
2018-09-21T16:56:10.067Z,64.20
2018-09-21T16:58:38.046Z,65.10
2018-09-21T17:01:06.818Z,63.10
2018-09-21T17:03:39.606Z,63.30
2018-09-21T17:06:07.639Z,63.50
2018-09-21T17:08:35.324Z,62.90
2018-09-21T17:11:03.085Z,61.70
2018-09-21T17:13:30.730Z,61.60
2018-09-21T17:15:59.820Z,60.90
2018-09-21T17:18:28.015Z,59.90
2018-09-21T17:20:56.130Z,59.70
2018-09-21T17:23:24.652Z,59.00
2018-09-21T17:25:53.131Z,59.10
2018-09-21T17:28:22.337Z,57.90
2018-09-21T17:30:51.019Z,59.00
2018-09-21T17:33:26.604Z,57.50
2018-09-21T17:35:55.412Z,58.00
2018-09-21T17:38:28.744Z,57.40
2018-09-21T17:40:56.832Z,57.50
2018-09-21T17:43:24.941Z,58.60
2018-09-21T17:45:52.730Z,58.00
2018-09-21T17:48:21.692Z,58.60
2018-09-21T17:50:54.516Z,59.20
2018-09-21T17:53:22.632Z,58.30
2018-09-21T17:56:00.202Z,58.90
2018-09-21T17:58:28.485Z,58.90
2018-09-21T18:03:57.613Z,59.60
2018-09-21T18:06:27.127Z,59.80
2018-09-21T18:08:59.647Z,59.10
2018-09-21T18:11:32.430Z,57.50
2018-09-21T18:14:01.339Z,57.90
2018-09-21T18:16:29.012Z,57.20
2018-09-21T18:19:07.460Z,56.30
2018-09-21T18:21:36.264Z,55.40
2018-09-21T18:24:05.072Z,54.50
2018-09-21T18:26:33.779Z,53.80
2018-09-21T18:29:02.482Z,53.30
2018-09-21T18:31:35.356Z,53.30
2018-09-21T18:34:03.592Z,53.10
2018-09-21T18:36:32.028Z,54.10
2018-09-21T18:39:01.252Z,52.80
2018-09-21T18:41:31.903Z,52.80
2018-09-21T18:44:02.903Z,53.20
2018-09-21T18:46:30.727Z,54.10
2018-09-21T18:49:03.025Z,54.70
2018-09-21T18:51:32.705Z,53.40
2018-09-21T18:54:06.523Z,53.50
2018-09-21T18:56:40.759Z,53.50
2018-09-21T18:59:12.292Z,55.00
2018-09-21T19:01:41.160Z,54.00
2018-09-21T19:04:09.400Z,53.50
2018-09-21T19:06:38.389Z,53.20
2018-09-21T19:09:09.920Z,55.10
2018-09-21T19:11:38.000Z,54.10
2018-09-21T19:14:07.937Z,52.80
2018-09-21T19:16:41.105Z,53.80
2018-09-21T19:19:10.182Z,54.60
2018-09-21T19:21:45.056Z,53.30
2018-09-21T19:24:15.263Z,53.10
2018-09-21T19:26:43.879Z,54.00
2018-09-21T19:29:14.329Z,53.60
2018-09-21T19:31:47.468Z,54.10
2018-09-21T19:34:17.133Z,54.90
2018-09-21T19:36:45.629Z,55.00
2018-09-21T19:39:15.991Z,55.20
2018-09-21T19:41:46.124Z,54.20
2018-09-21T19:44:22.623Z,54.40
2018-09-21T19:46:51.220Z,54.70
2018-09-21T19:49:23.856Z,55.30
2018-09-21T19:51:55.856Z,55.30
2018-09-21T19:54:25.279Z,55.90
2018-09-21T19:56:58.333Z,56.50
2018-09-21T19:59:26.203Z,55.90
2018-09-21T20:01:53.782Z,56.20
2018-09-21T20:04:21.641Z,57.10
2018-09-21T20:06:49.633Z,57.00
2018-09-21T20:09:17.433Z,57.80
2018-09-21T20:11:45.729Z,57.20
2018-09-21T20:14:13.330Z,56.10
2018-09-21T20:16:42.549Z,55.30
2018-09-21T20:19:10.345Z,55.70
2018-09-21T20:21:42.475Z,55.60
2018-09-21T20:24:10.131Z,55.30
2018-09-21T20:26:37.774Z,54.50
2018-09-21T20:29:05.743Z,55.90
2018-09-21T20:31:39.039Z,55.30
2018-09-21T20:34:06.742Z,54.40
2018-09-21T20:36:34.387Z,54.70
2018-09-21T20:39:02.220Z,55.60
2018-09-21T20:41:29.889Z,55.20
2018-09-21T20:43:57.464Z,56.00
2018-09-21T20:46:25.161Z,56.30
2018-09-21T20:48:53.192Z,55.70
2018-09-21T20:51:20.799Z,54.70
2018-09-21T20:53:48.719Z,54.60
2018-09-21T20:56:16.245Z,52.90
2018-09-21T20:58:43.828Z,53.50
2018-09-21T21:01:11.303Z,52.70
2018-09-21T21:03:38.893Z,52.30
2018-09-21T21:06:06.507Z,52.90
2018-09-21T21:08:34.147Z,54.00
2018-09-21T21:11:01.710Z,52.10
2018-09-21T21:13:29.352Z,51.70
2018-09-21T21:15:56.900Z,52.70
2018-09-21T21:18:24.536Z,54.00
2018-09-21T21:20:52.012Z,54.90
2018-09-21T21:23:19.545Z,55.20
2018-09-21T21:25:47.080Z,54.90
2018-09-21T21:28:14.706Z,53.90
2018-09-21T21:30:42.254Z,54.00
2018-09-21T21:33:09.856Z,54.80
2018-09-21T21:35:37.465Z,54.90
2018-09-21T21:38:05.182Z,54.40
2018-09-21T21:40:32.792Z,52.40
2018-09-21T21:43:00.355Z,53.30
2018-09-21T21:45:27.860Z,53.20
2018-09-21T21:47:55.323Z,54.20
2018-09-21T21:50:22.854Z,54.80
2018-09-21T21:52:50.491Z,53.60
2018-09-21T21:55:17.981Z,53.90
2018-09-21T21:57:45.538Z,54.00
2018-09-21T22:00:13.109Z,54.30
2018-09-21T22:02:40.670Z,55.60
2018-09-21T22:05:08.277Z,55.90
2018-09-21T22:07:36.972Z,56.20
2018-09-21T22:10:05.772Z,56.00
2018-09-21T22:12:38.732Z,56.10
2018-09-21T22:15:21.156Z,56.20
2018-09-21T22:17:49.475Z,56.40
2018-09-21T22:20:17.228Z,56.00
2018-09-21T22:22:44.780Z,56.20
2018-09-21T22:25:12.400Z,55.70
2018-09-21T22:27:40.526Z,56.00
2018-09-21T22:30:08.567Z,55.70
2018-09-21T22:32:36.197Z,55.70
2018-09-21T22:35:03.890Z,56.00
2018-09-21T22:37:31.470Z,55.40
2018-09-21T22:39:58.990Z,56.30
2018-09-21T22:42:26.597Z,54.00
2018-09-21T22:44:54.201Z,54.50
2018-09-21T22:47:21.671Z,53.50
2018-09-21T22:49:49.752Z,53.50
2018-09-21T22:52:17.316Z,53.40
2018-09-21T22:54:44.883Z,53.40
2018-09-21T22:57:12.635Z,54.00
2018-09-21T22:59:40.317Z,52.60
2018-09-21T23:02:07.895Z,52.50
2018-09-21T23:04:35.398Z,54.20
2018-09-21T23:07:02.947Z,52.20
2018-09-21T23:09:30.496Z,52.80
2018-09-21T23:11:58.515Z,53.50
2018-09-21T23:14:26.209Z,53.00
2018-09-21T23:16:53.905Z,51.80
2018-09-21T23:19:21.524Z,55.10
2018-09-21T23:21:49.262Z,52.00
2018-09-21T23:24:16.864Z,51.90
2018-09-21T23:26:44.391Z,54.50
2018-09-21T23:29:11.853Z,53.70
2018-09-21T23:31:39.444Z,53.60
2018-09-21T23:34:07.028Z,52.70
2018-09-21T23:36:34.711Z,53.80
2018-09-21T23:39:04.183Z,51.90
2018-09-21T23:41:31.695Z,52.50
2018-09-21T23:43:59.396Z,53.00
2018-09-21T23:46:26.960Z,53.40
2018-09-21T23:48:54.518Z,53.90
2018-09-21T23:51:22.051Z,54.10
2018-09-21T23:53:49.664Z,53.30
2018-09-21T23:56:17.271Z,53.30
2018-09-21T23:58:44.882Z,52.60
